Terminal Aerodrome Forecast
Issued by NWS Jackson, KY

Home | Current Version | Previous Version | Text Only | Print | Product List | Glossary On
Versions: 1 2 3 4 5 6 7 8 9 10 11 12 13 14 15 16 17 18 19 20 21 22
000
FTUS43 KJKL 241143
TAFLOZ
TAF
KLOZ 241143Z 2412/2512 VRB03KT P6SM FEW300
     FM250100 VRB03KT P6SM BKN070 BKN170
     FM250500 VRB03KT P6SM VCSH OVC040
     FM250800 VRB03KT 6SM -RA OVC020=

USA.gov is the U.S. government's official web portal to all federal, state and local government web resources and services.